sensor_id;sensor_type;location;lat;lon;timestamp;pressure;altitude;pressure_sealevel;temperature;humidity
6395;BME280;3230;42.588;23.358;2023-01-24T00:01:10;91888.25;;;2.73;100.00
6395;BME280;3230;42.588;23.358;2023-01-24T00:03:35;91894.00;;;2.75;100.00
6395;BME280;3230;42.588;23.358;2023-01-24T00:06:00;91895.75;;;2.81;100.00
6395;BME280;3230;42.588;23.358;2023-01-24T00:08:26;91894.78;;;2.82;100.00
6395;BME280;3230;42.588;23.358;2023-01-24T00:11:03;91887.81;;;2.76;100.00
6395;BME280;3230;42.588;23.358;2023-01-24T00:13:29;91891.44;;;2.68;100.00
6395;BME280;3230;42.588;23.358;2023-01-24T00:16:11;91901.84;;;2.55;100.00
6395;BME280;3230;42.588;23.358;2023-01-24T00:18:38;91890.13;;;2.39;100.00
6395;BME280;3230;42.588;23.358;2023-01-24T00:21:12;91893.91;;;2.43;100.00
6395;BME280;3230;42.588;23.358;2023-01-24T00:23:39;91894.84;;;2.55;100.00
6395;BME280;3230;42.588;23.358;2023-01-24T00:26:05;91901.06;;;2.48;100.00
6395;BME280;3230;42.588;23.358;2023-01-24T00:28:32;91887.97;;;2.29;100.00
6395;BME280;3230;42.588;23.358;2023-01-24T00:30:57;91882.19;;;2.20;100.00
6395;BME280;3230;42.588;23.358;2023-01-24T00:33:23;91881.81;;;2.17;100.00
6395;BME280;3230;42.588;23.358;2023-01-24T00:35:52;91881.41;;;2.27;100.00
6395;BME280;3230;42.588;23.358;2023-01-24T00:38:18;91882.00;;;2.15;100.00
6395;BME280;3230;42.588;23.358;2023-01-24T00:40:44;91892.72;;;2.32;100.00
6395;BME280;3230;42.588;23.358;2023-01-24T00:43:09;91884.00;;;2.27;100.00
6395;BME280;3230;42.588;23.358;2023-01-24T00:45:38;91889.16;;;2.27;100.00
6395;BME280;3230;42.588;23.358;2023-01-24T00:48:05;91886.34;;;2.35;100.00
6395;BME280;3230;42.588;23.358;2023-01-24T00:50:31;91895.09;;;2.47;100.00
6395;BME280;3230;42.588;23.358;2023-01-24T00:52:56;91893.13;;;2.43;100.00
6395;BME280;3230;42.588;23.358;2023-01-24T00:55:22;91896.28;;;2.31;100.00
6395;BME280;3230;42.588;23.358;2023-01-24T00:57:47;91897.53;;;2.15;100.00
6395;BME280;3230;42.588;23.358;2023-01-24T01:00:13;91896.75;;;2.15;100.00
6395;BME280;3230;42.588;23.358;2023-01-24T01:02:38;91888.97;;;2.21;100.00
6395;BME280;3230;42.588;23.358;2023-01-24T01:05:04;91893.94;;;2.16;100.00
6395;BME280;3230;42.588;23.358;2023-01-24T01:07:30;91894.53;;;2.18;100.00
6395;BME280;3230;42.588;23.358;2023-01-24T01:09:56;91894.53;;;2.12;100.00
6395;BME280;3230;42.588;23.358;2023-01-24T01:12:21;91898.53;;;2.07;100.00
6395;BME280;3230;42.588;23.358;2023-01-24T01:14:47;91894.34;;;2.13;100.00
6395;BME280;3230;42.588;23.358;2023-01-24T01:17:12;91903.91;;;2.06;100.00
6395;BME280;3230;42.588;23.358;2023-01-24T01:19:38;91893.34;;;1.87;100.00
6395;BME280;3230;42.588;23.358;2023-01-24T01:22:03;91900.31;;;2.07;100.00
6395;BME280;3230;42.588;23.358;2023-01-24T01:24:29;91887.97;;;2.09;100.00
6395;BME280;3230;42.588;23.358;2023-01-24T01:26:54;91899.13;;;2.03;100.00
6395;BME280;3230;42.588;23.358;2023-01-24T01:29:19;91890.38;;;2.04;100.00
6395;BME280;3230;42.588;23.358;2023-01-24T01:31:45;91899.53;;;2.00;100.00
6395;BME280;3230;42.588;23.358;2023-01-24T01:34:10;91896.72;;;2.08;100.00
6395;BME280;3230;42.588;23.358;2023-01-24T01:36:36;91893.38;;;1.94;100.00
6395;BME280;3230;42.588;23.358;2023-01-24T01:39:01;91895.75;;;2.02;100.00
6395;BME280;3230;42.588;23.358;2023-01-24T01:41:27;91897.53;;;2.02;100.00
6395;BME280;3230;42.588;23.358;2023-01-24T01:43:52;91895.38;;;1.99;100.00
6395;BME280;3230;42.588;23.358;2023-01-24T01:46:43;91883.25;;;1.79;100.00
6395;BME280;3230;42.588;23.358;2023-01-24T01:49:21;91884.03;;;1.86;100.00
6395;BME280;3230;42.588;23.358;2023-01-24T01:51:52;91876.88;;;1.95;100.00
6395;BME280;3230;42.588;23.358;2023-01-24T01:54:31;91882.22;;;2.00;100.00
6395;BME280;3230;42.588;23.358;2023-01-24T01:57:18;91893.97;;;1.89;100.00
6395;BME280;3230;42.588;23.358;2023-01-24T01:59:52;91890.56;;;1.96;100.00
6395;BME280;3230;42.588;23.358;2023-01-24T02:02:20;91882.22;;;1.94;100.00
6395;BME280;3230;42.588;23.358;2023-01-24T02:04:52;91889.38;;;2.05;100.00
6395;BME280;3230;42.588;23.358;2023-01-24T02:07:22;91876.06;;;1.81;100.00
6395;BME280;3230;42.588;23.358;2023-01-24T02:09:50;91876.28;;;1.86;100.00
6395;BME280;3230;42.588;23.358;2023-01-24T02:12:26;91882.03;;;1.88;100.00
6395;BME280;3230;42.588;23.358;2023-01-24T02:14:55;91878.84;;;1.93;100.00
6395;BME280;3230;42.588;23.358;2023-01-24T02:17:41;91879.66;;;1.87;100.00
6395;BME280;3230;42.588;23.358;2023-01-24T02:25:46;91880.44;;;1.74;100.00
6395;BME280;3230;42.588;23.358;2023-01-24T02:28:13;91881.44;;;1.86;100.00
6395;BME280;3230;42.588;23.358;2023-01-24T02:30:41;91884.81;;;1.60;100.00
6395;BME280;3230;42.588;23.358;2023-01-24T02:33:19;91885.63;;;1.67;100.00
6395;BME280;3230;42.588;23.358;2023-01-24T02:35:45;91884.81;;;1.80;100.00
6395;BME280;3230;42.588;23.358;2023-01-24T02:38:29;91883.63;;;1.76;100.00
6395;BME280;3230;42.588;23.358;2023-01-24T02:40:57;91883.25;;;1.79;100.00
6395;BME280;3230;42.588;23.358;2023-01-24T02:43:34;91888.78;;;1.76;100.00
6395;BME280;3230;42.588;23.358;2023-01-24T02:46:02;91882.81;;;1.82;100.00
6395;BME280;3230;42.588;23.358;2023-01-24T02:48:27;91881.22;;;1.81;100.00
6395;BME280;3230;42.588;23.358;2023-01-24T02:50:53;91883.44;;;1.71;100.00
6395;BME280;3230;42.588;23.358;2023-01-24T02:53:36;91878.84;;;1.73;100.00
6395;BME280;3230;42.588;23.358;2023-01-24T02:56:06;91884.03;;;1.66;100.00
6395;BME280;3230;42.588;23.358;2023-01-24T02:58:51;91878.84;;;1.59;100.00
6395;BME280;3230;42.588;23.358;2023-01-24T03:01:16;91859.38;;;1.50;100.00
6395;BME280;3230;42.588;23.358;2023-01-24T03:03:44;91873.28;;;1.56;100.00
6395;BME280;3230;42.588;23.358;2023-01-24T03:06:11;91875.88;;;1.63;100.00
6395;BME280;3230;42.588;23.358;2023-01-24T03:08:37;91866.34;;;1.56;100.00
6395;BME280;3230;42.588;23.358;2023-01-24T03:11:03;91877.47;;;1.64;100.00
6395;BME280;3230;42.588;23.358;2023-01-24T03:13:29;91867.13;;;1.50;100.00
6395;BME280;3230;42.588;23.358;2023-01-24T03:16:13;91862.56;;;1.52;100.00
6395;BME280;3230;42.588;23.358;2023-01-24T03:18:58;91859.56;;;1.42;100.00
6395;BME280;3230;42.588;23.358;2023-01-24T03:21:42;91864.75;;;1.49;100.00
6395;BME280;3230;42.588;23.358;2023-01-24T03:24:26;91865.91;;;1.33;100.00
6395;BME280;3230;42.588;23.358;2023-01-24T03:27:11;91858.53;;;1.23;100.00
6395;BME280;3230;42.588;23.358;2023-01-24T03:29:55;91858.94;;;1.40;100.00
6395;BME280;3230;42.588;23.358;2023-01-24T03:32:39;91859.97;;;1.52;100.00
6395;BME280;3230;42.588;23.358;2023-01-24T03:35:23;91859.75;;;1.40;100.00
6395;BME280;3230;42.588;23.358;2023-01-24T03:37:49;91849.03;;;1.43;100.00
6395;BME280;3230;42.588;23.358;2023-01-24T03:40:33;91858.38;;;1.44;100.00
6395;BME280;3230;42.588;23.358;2023-01-24T03:43:00;91863.94;;;1.48;100.00
6395;BME280;3230;42.588;23.358;2023-01-24T03:45:28;91851.41;;;1.38;100.00
6395;BME280;3230;42.588;23.358;2023-01-24T03:47:56;91854.19;;;1.37;100.00
6395;BME280;3230;42.588;23.358;2023-01-24T03:50:29;91855.19;;;1.36;100.00
6395;BME280;3230;42.588;23.358;2023-01-24T03:53:14;91857.38;;;1.46;100.00
6395;BME280;3230;42.588;23.358;2023-01-24T03:55:40;91850.41;;;1.33;100.00
6395;BME280;3230;42.588;23.358;2023-01-24T03:58:06;91853.22;;;1.38;100.00
6395;BME280;3230;42.588;23.358;2023-01-24T04:00:33;91852.22;;;1.39;100.00
6395;BME280;3230;42.588;23.358;2023-01-24T04:02:59;91852.41;;;1.31;100.00
6395;BME280;3230;42.588;23.358;2023-01-24T04:05:25;91853.78;;;1.33;100.00
6395;BME280;3230;42.588;23.358;2023-01-24T04:07:53;91850.00;;;1.22;100.00
6395;BME280;3230;42.588;23.358;2023-01-24T04:10:18;91848.22;;;1.36;100.00
6395;BME280;3230;42.588;23.358;2023-01-24T04:12:44;91856.56;;;1.18;100.00
6395;BME280;3230;42.588;23.358;2023-01-24T04:15:21;91856.16;;;1.35;100.00
6395;BME280;3230;42.588;23.358;2023-01-24T04:17:47;91845.47;;;1.38;100.00
6395;BME280;3230;42.588;23.358;2023-01-24T04:20:13;91850.81;;;1.30;100.00
6395;BME280;3230;42.588;23.358;2023-01-24T04:22:39;91844.84;;;1.22;100.00
6395;BME280;3230;42.588;23.358;2023-01-24T04:25:05;91855.56;;;1.33;100.00
6395;BME280;3230;42.588;23.358;2023-01-24T04:27:31;91847.63;;;1.27;100.00
6395;BME280;3230;42.588;23.358;2023-01-24T04:29:56;91850.41;;;1.33;100.00
6395;BME280;3230;42.588;23.358;2023-01-24T04:32:22;91850.22;;;1.21;100.00
6395;BME280;3230;42.588;23.358;2023-01-24T04:34:47;91847.41;;;1.22;100.00
6395;BME280;3230;42.588;23.358;2023-01-24T04:37:12;91869.25;;;1.26;100.00
6395;BME280;3230;42.588;23.358;2023-01-24T04:39:38;91853.22;;;1.38;100.00
6395;BME280;3230;42.588;23.358;2023-01-24T04:42:03;91851.00;;;1.28;100.00
6395;BME280;3230;42.588;23.358;2023-01-24T04:44:30;91862.91;;;1.22;100.00
6395;BME280;3230;42.588;23.358;2023-01-24T04:46:56;91851.81;;;1.22;100.00
6395;BME280;3230;42.588;23.358;2023-01-24T04:49:21;91845.63;;;1.23;100.00
6395;BME280;3230;42.588;23.358;2023-01-24T04:51:48;91851.78;;;1.28;100.00
6395;BME280;3230;42.588;23.358;2023-01-24T04:54:14;91855.94;;;1.23;100.00
6395;BME280;3230;42.588;23.358;2023-01-24T04:56:39;91860.50;;;1.07;100.00
6395;BME280;3230;42.588;23.358;2023-01-24T04:59:05;91858.72;;;1.08;100.00
6395;BME280;3230;42.588;23.358;2023-01-24T05:01:30;91854.34;;;1.15;100.00
6395;BME280;3230;42.588;23.358;2023-01-24T05:03:56;91853.75;;;1.13;100.00
6395;BME280;3230;42.588;23.358;2023-01-24T05:06:29;91858.91;;;1.13;100.00
6395;BME280;3230;42.588;23.358;2023-01-24T05:08:55;91866.84;;;1.05;100.00
6395;BME280;3230;42.588;23.358;2023-01-24T05:11:21;91865.03;;;0.99;100.00
6395;BME280;3230;42.588;23.358;2023-01-24T05:13:47;91873.38;;;1.01;100.00
6395;BME280;3230;42.588;23.358;2023-01-24T05:16:13;91859.63;;;0.73;100.00
6395;BME280;3230;42.588;23.358;2023-01-24T05:18:39;91874.50;;;0.78;100.00
6395;BME280;3230;42.588;23.358;2023-01-24T05:21:07;91886.41;;;0.79;100.00
6395;BME280;3230;42.588;23.358;2023-01-24T05:23:33;91883.28;;;0.90;100.00
6395;BME280;3230;42.588;23.358;2023-01-24T05:26:02;91893.38;;;0.78;100.00
6395;BME280;3230;42.588;23.358;2023-01-24T05:28:28;91895.78;;;0.87;100.00
6395;BME280;3230;42.588;23.358;2023-01-24T05:31:04;91892.63;;;0.98;100.00
6395;BME280;3230;42.588;23.358;2023-01-24T05:33:29;91888.25;;;0.99;100.00
6395;BME280;3230;42.588;23.358;2023-01-24T05:36:04;91895.22;;;0.98;100.00
6395;BME280;3230;42.588;23.358;2023-01-24T05:38:30;91897.44;;;1.01;100.00
6395;BME280;3230;42.588;23.358;2023-01-24T05:41:04;91905.38;;;1.06;100.00
6395;BME280;3230;42.588;23.358;2023-01-24T05:43:30;91900.34;;;0.85;100.00
6395;BME280;3230;42.588;23.358;2023-01-24T05:46:06;91908.44;;;0.75;100.00
6395;BME280;3230;42.588;23.358;2023-01-24T05:48:33;91911.22;;;0.80;100.00
6395;BME280;3230;42.588;23.358;2023-01-24T05:51:00;91911.22;;;0.80;100.00
6395;BME280;3230;42.588;23.358;2023-01-24T05:53:27;91906.69;;;0.89;100.00
6395;BME280;3230;42.588;23.358;2023-01-24T05:56:02;91911.16;;;0.60;100.00
6395;BME280;3230;42.588;23.358;2023-01-24T05:58:31;91909.16;;;0.62;100.00
6395;BME280;3230;42.588;23.358;2023-01-24T06:00:57;91919.13;;;0.72;100.00
6395;BME280;3230;42.588;23.358;2023-01-24T06:03:22;91913.13;;;0.58;100.00
6395;BME280;3230;42.588;23.358;2023-01-24T06:05:50;91924.69;;;0.75;100.00
6395;BME280;3230;42.588;23.358;2023-01-24T06:08:16;91926.78;;;0.58;100.00
6395;BME280;3230;42.588;23.358;2023-01-24T06:10:41;91917.72;;;0.62;100.00
6395;BME280;3230;42.588;23.358;2023-01-24T06:13:07;91924.47;;;0.63;100.00
6395;BME280;3230;42.588;23.358;2023-01-24T06:15:33;91925.88;;;0.73;100.00
6395;BME280;3230;42.588;23.358;2023-01-24T06:17:59;91927.47;;;0.74;100.00
6395;BME280;3230;42.588;23.358;2023-01-24T06:20:24;91929.38;;;0.58;100.00
6395;BME280;3230;42.588;23.358;2023-01-24T06:23:02;91938.97;;;0.71;100.00
6395;BME280;3230;42.588;23.358;2023-01-24T06:25:28;91946.00;;;0.84;100.00
6395;BME280;3230;42.588;23.358;2023-01-24T06:27:54;91934.84;;;0.84;100.00
6395;BME280;3230;42.588;23.358;2023-01-24T06:30:20;91950.19;;;0.99;100.00
6395;BME280;3230;42.588;23.358;2023-01-24T06:38:22;91948.94;;;0.81;100.00
6395;BME280;3230;42.588;23.358;2023-01-24T06:40:53;91959.25;;;0.81;100.00
6395;BME280;3230;42.588;23.358;2023-01-24T06:43:20;91952.28;;;0.75;100.00
6395;BME280;3230;42.588;23.358;2023-01-24T06:45:46;91952.56;;;0.93;100.00
6395;BME280;3230;42.588;23.358;2023-01-24T06:48:11;91951.97;;;0.91;100.00
6395;BME280;3230;42.588;23.358;2023-01-24T06:50:37;91961.28;;;0.92;100.00
6395;BME280;3230;42.588;23.358;2023-01-24T06:53:02;91959.06;;;0.83;100.00
6395;BME280;3230;42.588;23.358;2023-01-24T06:55:29;91962.88;;;0.87;100.00
6395;BME280;3230;42.588;23.358;2023-01-24T06:58:00;91962.31;;;0.91;100.00
6395;BME280;3230;42.588;23.358;2023-01-24T07:00:26;91974.03;;;1.01;100.00
6395;BME280;3230;42.588;23.358;2023-01-24T07:03:05;91966.44;;;0.92;100.00
6395;BME280;3230;42.588;23.358;2023-01-24T07:05:35;91966.44;;;0.92;100.00
6395;BME280;3230;42.588;23.358;2023-01-24T07:08:01;91967.47;;;0.91;100.00
6395;BME280;3230;42.588;23.358;2023-01-24T07:10:26;91971.41;;;0.87;100.00
6395;BME280;3230;42.588;23.358;2023-01-24T07:12:51;91975.22;;;0.91;100.00
6395;BME280;3230;42.588;23.358;2023-01-24T07:15:17;91973.22;;;0.93;100.00
6395;BME280;3230;42.588;23.358;2023-01-24T07:17:43;91976.19;;;0.90;100.00
6395;BME280;3230;42.588;23.358;2023-01-24T07:20:09;91973.81;;;0.95;100.00
6395;BME280;3230;42.588;23.358;2023-01-24T07:22:37;91971.25;;;0.95;100.00
6395;BME280;3230;42.588;23.358;2023-01-24T07:25:04;91974.44;;;0.98;100.00
6395;BME280;3230;42.588;23.358;2023-01-24T07:27:30;91979.50;;;0.77;100.00
6395;BME280;3230;42.588;23.358;2023-01-24T07:29:56;91978.56;;;0.92;100.00
6395;BME280;3230;42.588;23.358;2023-01-24T07:32:21;91982.56;;;0.94;100.00
6395;BME280;3230;42.588;23.358;2023-01-24T07:34:46;91987.16;;;1.06;100.00
6395;BME280;3230;42.588;23.358;2023-01-24T07:37:12;91989.16;;;1.04;100.00
6395;BME280;3230;42.588;23.358;2023-01-24T07:39:37;91995.94;;;1.11;100.00
6395;BME280;3230;42.588;23.358;2023-01-24T07:42:03;91999.28;;;1.12;100.00
6395;BME280;3230;42.588;23.358;2023-01-24T07:44:28;91997.31;;;1.07;100.00
6395;BME280;3230;42.588;23.358;2023-01-24T07:46:53;91998.13;;;1.15;100.00
6395;BME280;3230;42.588;23.358;2023-01-24T07:49:19;91994.38;;;1.17;100.00
6395;BME280;3230;42.588;23.358;2023-01-24T07:51:44;91995.78;;;1.20;100.00
6395;BME280;3230;42.588;23.358;2023-01-24T07:54:13;91997.94;;;1.16;100.00
6395;BME280;3230;42.588;23.358;2023-01-24T07:56:39;92006.13;;;1.26;100.00
6395;BME280;3230;42.588;23.358;2023-01-24T07:59:04;92008.28;;;1.23;100.00
6395;BME280;3230;42.588;23.358;2023-01-24T08:01:30;92006.66;;;1.15;100.00
6395;BME280;3230;42.588;23.358;2023-01-24T08:03:56;92009.50;;;1.34;100.00
6395;BME280;3230;42.588;23.358;2023-01-24T08:06:22;92003.16;;;1.30;100.00
6395;BME280;3230;42.588;23.358;2023-01-24T08:08:48;92007.13;;;1.32;100.00
6395;BME280;3230;42.588;23.358;2023-01-24T08:11:13;92003.56;;;1.33;100.00
6395;BME280;3230;42.588;23.358;2023-01-24T08:13:42;92007.97;;;1.39;100.00
6395;BME280;3230;42.588;23.358;2023-01-24T08:16:08;91982.09;;;1.33;100.00
6395;BME280;3230;42.588;23.358;2023-01-24T08:18:34;92003.81;;;1.52;100.00
6395;BME280;3230;42.588;23.358;2023-01-24T08:20:59;92005.75;;;1.30;100.00
6395;BME280;3230;42.588;23.358;2023-01-24T08:23:25;91998.78;;;1.30;100.00
6395;BME280;3230;42.588;23.358;2023-01-24T08:25:51;92003.78;;;1.32;100.00
6395;BME280;3230;42.588;23.358;2023-01-24T08:28:17;92005.94;;;1.35;100.00
6395;BME280;3230;42.588;23.358;2023-01-24T08:30:43;92011.69;;;1.30;100.00
6395;BME280;3230;42.588;23.358;2023-01-24T08:33:08;92008.53;;;1.35;100.00
6395;BME280;3230;42.588;23.358;2023-01-24T08:35:37;92009.56;;;1.40;100.00
6395;BME280;3230;42.588;23.358;2023-01-24T08:38:02;92008.56;;;1.48;100.00
6395;BME280;3230;42.588;23.358;2023-01-24T08:40:28;92008.53;;;1.35;100.00
6395;BME280;3230;42.588;23.358;2023-01-24T08:42:53;92004.03;;;1.50;100.00
6395;BME280;3230;42.588;23.358;2023-01-24T08:45:19;92011.28;;;1.26;100.00
6395;BME280;3230;42.588;23.358;2023-01-24T08:47:44;92016.13;;;1.43;100.00
6395;BME280;3230;42.588;23.358;2023-01-24T08:50:10;92023.09;;;1.49;100.00
6395;BME280;3230;42.588;23.358;2023-01-24T08:52:35;92018.75;;;1.56;100.00
6395;BME280;3230;42.588;23.358;2023-01-24T08:55:01;92019.09;;;1.47;100.00
6395;BME280;3230;42.588;23.358;2023-01-24T08:57:26;92016.31;;;1.48;100.00
6395;BME280;3230;42.588;23.358;2023-01-24T08:59:51;92013.94;;;1.53;100.00
6395;BME280;3230;42.588;23.358;2023-01-24T09:02:18;92012.00;;;1.69;100.00
6395;BME280;3230;42.588;23.358;2023-01-24T09:04:43;92011.09;;;1.28;100.00
6395;BME280;3230;42.588;23.358;2023-01-24T09:07:12;92009.75;;;1.39;100.00
6395;BME280;3230;42.588;23.358;2023-01-24T09:09:37;92013.56;;;1.56;100.00
6395;BME280;3230;42.588;23.358;2023-01-24T09:12:03;92012.56;;;1.51;100.00
6395;BME280;3230;42.588;23.358;2023-01-24T09:14:29;92011.56;;;1.52;100.00
6395;BME280;3230;42.588;23.358;2023-01-24T09:16:54;92016.13;;;1.43;100.00
6395;BME280;3230;42.588;23.358;2023-01-24T09:19:20;92014.41;;;1.64;100.00
6395;BME280;3230;42.588;23.358;2023-01-24T09:21:45;92012.41;;;1.72;100.00
6395;BME280;3230;42.588;23.358;2023-01-24T09:24:16;92005.66;;;1.65;100.00
6395;BME280;3230;42.588;23.358;2023-01-24T09:26:43;92008.00;;;1.59;100.00
6395;BME280;3230;42.588;23.358;2023-01-24T09:29:08;92006.06;;;1.68;100.00
6395;BME280;3230;42.588;23.358;2023-01-24T09:31:34;92011.81;;;1.70;100.00
6395;BME280;3230;42.588;23.358;2023-01-24T09:33:59;92002.69;;;1.81;100.00
6395;BME280;3230;42.588;23.358;2023-01-24T09:36:25;92004.50;;;1.94;100.00
6395;BME280;3230;42.588;23.358;2023-01-24T09:38:51;92009.06;;;1.85;100.00
6395;BME280;3230;42.588;23.358;2023-01-24T09:44:08;92003.31;;;1.83;100.00
6395;BME280;3230;42.588;23.358;2023-01-24T09:46:44;92007.41;;;1.57;100.00
6395;BME280;3230;42.588;23.358;2023-01-24T09:51:51;92010.84;;;1.78;100.00
6395;BME280;3230;42.588;23.358;2023-01-24T09:54:36;92009.66;;;1.87;100.00
6395;BME280;3230;42.588;23.358;2023-01-24T09:57:11;92007.31;;;1.99;100.00
6395;BME280;3230;42.588;23.358;2023-01-24T09:59:43;92004.47;;;1.74;100.00
6395;BME280;3230;42.588;23.358;2023-01-24T10:02:16;91999.31;;;1.81;100.00
6395;BME280;3230;42.588;23.358;2023-01-24T10:04:43;92003.94;;;1.99;100.00
6395;BME280;3230;42.588;23.358;2023-01-24T10:15:02;91994.75;;;1.83;100.00
6395;BME280;3230;42.588;23.358;2023-01-24T10:18:14;91996.19;;;2.12;100.00
6395;BME280;3230;42.588;23.358;2023-01-24T10:23:06;91994.16;;;1.87;100.00
6395;BME280;3230;42.588;23.358;2023-01-24T10:28:02;91990.97;;;1.79;100.00
6395;BME280;3230;42.588;23.358;2023-01-24T10:30:39;91984.84;;;2.00;100.00
6395;BME280;3230;42.588;23.358;2023-01-24T10:33:13;91979.44;;;1.95;100.00
6395;BME280;3230;42.588;23.358;2023-01-24T10:38:19;91978.66;;;2.14;100.00
6395;BME280;3230;42.588;23.358;2023-01-24T10:41:16;91978.09;;;2.12;100.00
6395;BME280;3230;42.588;23.358;2023-01-24T10:43:36;91977.47;;;2.23;100.00
6395;BME280;3230;42.588;23.358;2023-01-24T10:46:33;91985.03;;;2.25;100.00
6395;BME280;3230;42.588;23.358;2023-01-24T10:49:11;91976.69;;;2.30;100.00
6395;BME280;3230;42.588;23.358;2023-01-24T10:51:41;91974.88;;;2.37;100.00
6395;BME280;3230;42.588;23.358;2023-01-24T10:54:19;91971.91;;;2.53;100.00
6395;BME280;3230;42.588;23.358;2023-01-24T10:56:45;91974.09;;;2.36;100.00
6395;BME280;3230;42.588;23.358;2023-01-24T10:59:12;91964.75;;;2.15;100.00
6395;BME280;3230;42.588;23.358;2023-01-24T11:01:44;91971.72;;;2.28;100.00
6395;BME280;3230;42.588;23.358;2023-01-24T11:06:47;91970.31;;;2.26;100.00
6395;BME280;3230;42.588;23.358;2023-01-24T11:09:15;91973.50;;;2.28;100.00
6395;BME280;3230;42.588;23.358;2023-01-24T11:11:46;91960.78;;;2.26;100.00
6395;BME280;3230;42.588;23.358;2023-01-24T11:14:21;91952.81;;;2.07;100.00
6395;BME280;3230;42.588;23.358;2023-01-24T11:16:50;91955.59;;;2.13;100.00
6395;BME280;3230;42.588;23.358;2023-01-24T11:19:34;91953.22;;;2.11;100.00
6395;BME280;3230;42.588;23.358;2023-01-24T11:22:25;91945.66;;;2.03;100.00
6395;BME280;3230;42.588;23.358;2023-01-24T11:24:56;91941.69;;;2.14;100.00
6395;BME280;3230;42.588;23.358;2023-01-24T11:27:23;91949.66;;;2.12;100.00
6395;BME280;3230;42.588;23.358;2023-01-24T11:30:19;91951.44;;;2.18;100.00
6395;BME280;3230;42.588;23.358;2023-01-24T11:35:51;91934.13;;;1.99;100.00
6395;BME280;3230;42.588;23.358;2023-01-24T11:38:24;91930.34;;;2.08;100.00
6395;BME280;3230;42.588;23.358;2023-01-24T11:51:53;91936.69;;;2.05;100.00
6395;BME280;3230;42.588;23.358;2023-01-24T11:57:15;91933.31;;;1.98;100.00
6395;BME280;3230;42.588;23.358;2023-01-24T12:03:04;91921.41;;;2.04;100.00
6395;BME280;3230;42.588;23.358;2023-01-24T12:09:13;91932.53;;;2.18;100.00
6395;BME280;3230;42.588;23.358;2023-01-24T12:17:27;91931.31;;;2.34;100.00
6395;BME280;3230;42.588;23.358;2023-01-24T12:22:38;91937.28;;;2.14;100.00
6395;BME280;3230;42.588;23.358;2023-01-24T12:25:27;91942.88;;;2.04;100.00
6395;BME280;3230;42.588;23.358;2023-01-24T12:28:00;91939.31;;;1.99;100.00
6395;BME280;3230;42.588;23.358;2023-01-24T12:30:33;91938.31;;;2.00;100.00
6395;BME280;3230;42.588;23.358;2023-01-24T12:36:01;91946.25;;;1.91;100.00
6395;BME280;3230;42.588;23.358;2023-01-24T12:38:39;91942.06;;;1.90;100.00
6395;BME280;3230;42.588;23.358;2023-01-24T12:55:28;91940.53;;;2.88;100.00
6395;BME280;3230;42.588;23.358;2023-01-24T12:58:15;91936.19;;;2.89;100.00
6395;BME280;3230;42.588;23.358;2023-01-24T13:01:06;91940.88;;;3.12;100.00
6395;BME280;3230;42.588;23.358;2023-01-24T13:11:49;91933.75;;;3.01;100.00
6395;BME280;3230;42.588;23.358;2023-01-24T13:27:36;91958.06;;;3.00;100.00
6395;BME280;3230;42.588;23.358;2023-01-24T13:32:43;91953.91;;;2.79;100.00
6395;BME280;3230;42.588;23.358;2023-01-24T13:35:18;91954.34;;;2.76;100.00
6395;BME280;3230;42.588;23.358;2023-01-24T13:41:05;91956.38;;;2.53;100.00
6395;BME280;3230;42.588;23.358;2023-01-24T13:46:13;91955.38;;;2.41;100.00
6395;BME280;3230;42.588;23.358;2023-01-24T13:54:01;91960.78;;;2.13;100.00
6395;BME280;3230;42.588;23.358;2023-01-24T13:56:27;91960.16;;;2.11;100.00
6395;BME280;3230;42.588;23.358;2023-01-24T13:58:54;91962.75;;;2.11;100.00
6395;BME280;3230;42.588;23.358;2023-01-24T14:01:20;91960.38;;;2.02;100.00
6395;BME280;3230;42.588;23.358;2023-01-24T14:03:55;91954.19;;;1.83;100.00
6395;BME280;3230;42.588;23.358;2023-01-24T14:06:21;91957.00;;;1.82;100.00
6395;BME280;3230;42.588;23.358;2023-01-24T14:09:12;91956.78;;;1.83;100.00
6395;BME280;3230;42.588;23.358;2023-01-24T14:11:55;91949.44;;;1.87;100.00
6395;BME280;3230;42.588;23.358;2023-01-24T14:14:32;91952.41;;;1.97;100.00
6395;BME280;3230;42.588;23.358;2023-01-24T14:17:00;91954.00;;;1.98;100.00
6395;BME280;3230;42.588;23.358;2023-01-24T14:19:36;91953.22;;;1.98;100.00
6395;BME280;3230;42.588;23.358;2023-01-24T14:22:14;91962.56;;;1.85;100.00
6395;BME280;3230;42.588;23.358;2023-01-24T14:27:27;91952.34;;;1.57;100.00
6395;BME280;3230;42.588;23.358;2023-01-24T14:37:40;91950.19;;;1.60;100.00
6395;BME280;3230;42.588;23.358;2023-01-24T14:40:27;91950.38;;;1.52;100.00
6395;BME280;3230;42.588;23.358;2023-01-24T14:43:03;91946.59;;;1.41;100.00
6395;BME280;3230;42.588;23.358;2023-01-24T14:45:31;91952.16;;;1.52;100.00
6395;BME280;3230;42.588;23.358;2023-01-24T14:47:58;91952.56;;;1.49;100.00
6395;BME280;3230;42.588;23.358;2023-01-24T14:52:54;91957.09;;;1.40;100.00
6395;BME280;3230;42.588;23.358;2023-01-24T14:57:45;91958.06;;;1.32;100.00
6395;BME280;3230;42.588;23.358;2023-01-24T15:02:39;91961.44;;;1.26;100.00
6395;BME280;3230;42.588;23.358;2023-01-24T15:05:23;91967.41;;;1.33;100.00
6395;BME280;3230;42.588;23.358;2023-01-24T15:07:49;91959.84;;;1.25;100.00
6395;BME280;3230;42.588;23.358;2023-01-24T15:10:15;91964.16;;;1.11;100.00
6395;BME280;3230;42.588;23.358;2023-01-24T15:12:41;91964.16;;;1.11;100.00
6395;BME280;3230;42.588;23.358;2023-01-24T15:15:15;91971.56;;;1.21;100.00
6395;BME280;3230;42.588;23.358;2023-01-24T15:17:45;91965.78;;;1.19;100.00
6395;BME280;3230;42.588;23.358;2023-01-24T15:20:23;91970.13;;;1.11;100.00
6395;BME280;3230;42.588;23.358;2023-01-24T15:22:51;91968.78;;;1.22;100.00
6395;BME280;3230;42.588;23.358;2023-01-24T15:25:21;91971.31;;;1.16;100.00
6395;BME280;3230;42.588;23.358;2023-01-24T15:27:48;91965.56;;;1.20;100.00
6395;BME280;3230;42.588;23.358;2023-01-24T15:30:26;91971.72;;;1.19;100.00
6395;BME280;3230;42.588;23.358;2023-01-24T15:37:46;91974.09;;;1.14;100.00
6395;BME280;3230;42.588;23.358;2023-01-24T15:40:17;91970.69;;;1.07;100.00
6395;BME280;3230;42.588;23.358;2023-01-24T15:42:47;91968.88;;;1.01;100.00
6395;BME280;3230;42.588;23.358;2023-01-24T15:45:35;91968.88;;;0.94;100.00